GMME/RBA METAR and TAF weather

Enter ICAO airport designator
Station Type Date Time Source
GMME METAR 2018/10/16 20:30 UTC NOAA

GMME 162030Z 18003KT 130V210 5000 BKN013TCU BKN020 19/17 Q1016 NOSIG


Station Type Date Time Source
GMME Decoded METAR 2018/10/16 20:30 UTC NOAA

Rabat-Sale, Morocco (GMME) 34-03N 006-46W 75M
Oct 16, 2018 - 04:30 PM EDT / 2018.10.16 2030 UTC
Wind: from the S (180 degrees) at 3 MPH (3 KT) (direction variable):0
Visibility: 3 mile(s):0
Sky conditions: mostly cloudy
Weather: Towering cumulus clouds observed
Temperature: 66 F (19 C)
Dew Point: 62 F (17 C)
Relative Humidity: 88%
Pressure (altimeter): 30.00 in. Hg (1016 hPa)
ob: GMME 162030Z 18003KT 130V210 5000 BKN013TCU BKN020 19/17 Q1016 NOSIG
cycle: 20

Station Type Date Time Source
GMME TAF 2018/10/16 18:18 UTC NOAA

TAF GMME 161700Z 1618/1724 24010KT 6000 BKN015 BKB015
TEMPO 1618/1624 24014KT 3000 SHRA BKN013TCU
BECMG 1700/1702 16006KT
BECMG 1710/1712 34012KT 8000 SCT013 SCT020


Example: see airport list